Stations météo

réclame
Mon MeteoGroup
Fichtelberg, Allemagne (10578): Température de l'air & dewpoint: 06.11.2019 05:00:00 - 12.11.2019 05:00:00 (CET)Fichtelberg, Allemagne (10578): Température de l'air 5cm & Température de l'air -5cm: 06.11.2019 05:00:00 - 12.11.2019 05:00:00 (CET)Fichtelberg, Allemagne (10578): Température de l'air -20cm & Température de l'air -100cm: 06.11.2019 05:00:00 - 12.11.2019 05:00:00 (CET)Fichtelberg, Allemagne (10578): Vitesse du vent & gusts: 06.11.2019 05:00:00 - 12.11.2019 05:00:00 (CET)Fichtelberg, Allemagne (10578): Direction du vent: 06.11.2019 05:00:00 - 12.11.2019 05:00:00 (CET)Fichtelberg, Allemagne (10578): visibility: 06.11.2019 05:00:00 - 12.11.2019 05:00:00 (CET)Fichtelberg, Allemagne (10578): Ensoleillement: 06.11.2019 05:00:00 - 12.11.2019 05:00:00 (CET)
Date & Time tt [°C] td [°C] tt 5cm [°C] tt -5cm [°C] tt -20cm [°C] tt -100cm [°C] ff [km/h] ff [knt] fx [km/h] fx [knt] dd vv [km] sd [min]
12.11.2019 05:00:00 -2,7 -3,3 -2,5 0,1 2,0 7,1 37 20 57 31 SW 0,2 0
12.11.2019 04:00:00 -2,5 -3,0 -2,3 0,1 2,0 7,1 40 22 63 34 SW 0,2 0
12.11.2019 03:00:00 -2,0 -2,5 -1,8 0,1 2,0 7,1 44 24 59 32 SW 0,2 0
12.11.2019 02:00:00 -1,3 -2,2 -1,3 0,1 2,0 7,1 51 27 57 31 WSW 45 0
12.11.2019 01:00:00 -2,4 -3,8 -2,3 0,1 2,0 7,1 43 23 58 31 WSW 8 0
12.11.2019 00:00:00 -0,6 -7,0 -0,7 0,1 2,0 7,1 46 25 50 27 WSW 73 0
11.11.2019 23:00:00 -0,5 -7,4 -1,0 0,1 2,0 7,1 46 25 63 34 SW 75 0
11.11.2019 22:00:00 -0,6 -4,9 -1,0 0,1 2,0 7,1 56 30 66 35 SSW 61 0
11.11.2019 21:00:00 -0,7 -6,3 -1,5 0,1 2,1 7,2 52 28 62 34 SSW 72 0
11.11.2019 20:00:00 -1,4 -6,2 -1,9 0,1 2,1 7,2 50 27 58 31 S 75 0
11.11.2019 19:00:00 -2,6 -6,2 -3,4 0,1 2,1 7,2 40 22 51 27 S 54 0
11.11.2019 18:00:00 -0,2 -10,0 -1,6 0,1 2,1 7,2 40 22 52 28 S 75 0
11.11.2019 17:00:00 -1,0 -7,7 -2,2 0,1 2,1 7,2 35 19 49 26 S 75 13
11.11.2019 16:00:00 0,0 -7,4 -1,3 0,1 2,2 7,2 36 20 53 29 S 75 60
11.11.2019 15:00:00 0,3 -7,1 0,7 0,1 2,2 7,2 38 21 59 32 S 75 60
11.11.2019 14:00:00 -0,6 -5,8 0,9 0,1 2,2 7,2 32 17 53 29 S 75 60
11.11.2019 13:00:00 -1,1 -5,5 0,6 0,1 2,2 7,2 28 15 56 30 SSE 54 60
11.11.2019 12:00:00 -0,8 -5,5 0,1 0,1 2,2 7,2 42 23 61 33 SSE 51 60
11.11.2019 11:00:00 -1,0 -5,1 -1,0 0,1 2,3 7,2 35 19 55 30 SSE 46 60
11.11.2019 10:00:00 -1,0 -5,3 -2,0 0,1 2,3 7,2 35 19 49 26 SSE 51 60
11.11.2019 09:00:00 -1,5 -5,6 -3,4 0,1 2,3 7,2 28 15 40 22 SSE 75 60
11.11.2019 08:00:00 -2,4 -5,8 -4,6 0,1 2,3 7,2 29 15 39 21 SSE 62 30
11.11.2019 07:00:00 -3,1 -6,0 -5,1 0,2 2,4 7,3 25 13 31 17 S 69 0
11.11.2019 06:00:00 -3,0 -5,9 -4,8 0,2 2,4 7,3 29 16 32 17 SSW 66 0
11.11.2019 05:00:00 -3,0 -5,7 -4,9 0,3 2,4 7,3 26 14 29 15 SSW 71 0
11.11.2019 04:00:00 -3,1 -5,0 -4,7 0,4 2,4 7,3 25 13 27 15 SSW 60 0
11.11.2019 03:00:00 -2,8 -4,7 -4,5 0,4 2,5 7,3 21 11 23 13 SSW 62 0
11.11.2019 02:00:00 -2,6 -3,8 -4,0 0,5 2,5 7,3 15 8 18 10 SSW 28 0
11.11.2019 01:00:00 -2,5 -3,8 -4,0 0,5 2,5 7,3 12 6 15 8 SW 41 0
11.11.2019 00:00:00 -2,3 -3,7 -3,6 0,5 2,5 7,3 14 8 16 9 SW 40 0
10.11.2019 23:00:00 -2,3 -3,4 -3,1 0,6 2,5 7,3 16 9 19 10 SW 20 0
10.11.2019 22:00:00 -2,2 -3,2 -2,9 0,6 2,5 7,3 16 9 18 10 SW 16 0
10.11.2019 21:00:00 -2,3 -3,6 -3,0 0,6 2,6 7,3 13 7 16 8 SW 29 0
10.11.2019 20:00:00 -2,4 -3,9 -3,8 0,6 2,6 7,3 5 3 7 4 SW 52 0
10.11.2019 19:00:00 -2,2 -3,5 -3,1 0,6 2,6 7,3 5 3 6 3 W 42 0
10.11.2019 18:00:00 -1,5 -2,9 -2,0 0,6 2,6 7,3 6 3 9 5 NNW 42 0
10.11.2019 17:00:00 -1,0 -2,6 -1,8 0,6 2,6 7,3 4 2 9 5 E 62 0
10.11.2019 16:00:00 -0,8 -2,6 -1,2 0,6 2,7 7,4 3 2 13 7 NE 55 0
10.11.2019 15:00:00 -0,2 -2,0 -0,1 0,6 2,7 7,4 9 5 12 7 N 71 8
10.11.2019 14:00:00 -0,1 -2,3 -0,1 0,6 2,7 7,4 4 2 17 9 NNW 70 33
10.11.2019 13:00:00 0,1 -2,7 -0,1 0,6 2,8 7,4 6 4 11 6 N 68 34
10.11.2019 12:00:00 -1,1 -3,5 -1,9 0,6 2,8 7,4 3 2 6 3 NNE 75 2
10.11.2019 11:00:00 -0,4 -3,1 -0,7 0,6 2,8 7,4 4 2 9 5 N 75 49
10.11.2019 10:00:00 -0,9 -3,1 -0,9 0,6 2,9 7,4 5 3 9 5 N 75 60
10.11.2019 09:00:00 -1,2 -2,8 -3,0 0,6 2,9 7,4 4 2 11 6 NE 67 60
10.11.2019 08:00:00 -3,0 -4,1 -4,8 0,7 2,9 7,4 9 5 20 11 WNW 69 30
10.11.2019 07:00:00 -3,0 -4,1 -4,4 0,7 3,0 7,4 15 8 19 10 W 75 0
10.11.2019 06:00:00 -2,7 -3,6 -2,8 0,7 3,0 7,4 6 3 13 7 SSW 75 0
10.11.2019 05:00:00 -3,0 -4,3 -4,7 0,8 3,0 7,4 6 3 17 9 S 75 0
10.11.2019 04:00:00 -2,8 -4,0 -3,9 0,8 3,1 7,4 16 9 23 12 SW 70 0
10.11.2019 03:00:00 -2,9 -4,0 -3,7 0,9 3,1 7,4 19 10 29 16 WSW 33 0
10.11.2019 02:00:00 -2,7 -3,7 -3,2 0,9 3,1 7,4 25 13 32 18 WSW 18 0
10.11.2019 01:00:00 -2,2 -2,9 -2,1 0,9 3,2 7,4 17 9 34 18 WSW 0,1 0
10.11.2019 00:00:00 -2,1 -2,8 -1,8 1,0 3,2 7,4 24 13 37 20 WSW 0,4 0
09.11.2019 23:00:00 -2,0 -2,7 -2,0 1,0 3,3 7,4 24 13 34 18 WSW 2,0 0
09.11.2019 22:00:00 -1,9 -2,5 -1,6 1,0 3,3 7,5 31 17 40 22 WSW 0,6 0
09.11.2019 21:00:00 -2,4 -3,3 -2,7 1,1 3,4 7,5 34 18 39 21 WSW 14 0
09.11.2019 20:00:00 -2,3 -3,1 -2,4 1,2 3,5 7,5 30 16 36 20 W 0,7 0
09.11.2019 19:00:00 -2,2 -3,0 -2,3 1,3 3,5 7,5 27 15 40 22 W 1,4 0
09.11.2019 18:00:00 -1,4 -2,0 -1,1 1,4 3,6 7,5 30 16 41 22 W 0,1 0
09.11.2019 17:00:00 -1,4 -2,0 -1,1 1,7 3,6 7,5 35 19 53 29 W 0,3 0
09.11.2019 16:00:00 -1,1 -1,7 -0,8 2,0 3,6 7,5 30 16 49 26 W 0,2 0
09.11.2019 15:00:00 -0,9 -1,4 -0,3 2,3 3,6 7,5 33 18 48 26 W 0,2 0
09.11.2019 14:00:00 -0,7 -1,2 0,0 2,4 3,6 7,5 38 20 49 26 W 0,2 0
09.11.2019 13:00:00 -0,3 -0,8 0,7 2,5 3,6 7,5 35 19 43 23 W 0,2 0
09.11.2019 12:00:00 0,0 -0,5 0,6 2,1 3,6 7,5 26 14 32 17 WNW 0,1 0
09.11.2019 11:00:00 0,0 -0,5 0,1 1,8 3,6 7,5 23 13 32 17 W 0,1 0
09.11.2019 10:00:00 0,1 -0,5 0,0 2,1 3,6 7,5 23 12 31 17 W 0,1 0
09.11.2019 09:00:00 0,8 0,3 1,2 2,2 3,6 7,5 19 11 24 13 W 0,1 0
09.11.2019 08:00:00 0,6 0,2 0,9 2,1 3,7 7,5 17 9 25 13 W 0,1 0
09.11.2019 07:00:00 0,7 0,3 0,8 2,1 3,7 7,5 17 9 26 14 W 0,1 0
09.11.2019 06:00:00 0,8 0,3 0,9 2,3 3,7 7,5 16 9 21 12 W 0,1 0
09.11.2019 05:00:00 1,0 0,5 1,2 2,3 3,7 7,6 16 8 25 14 W 0,1 0
09.11.2019 04:00:00 1,0 0,5 1,1 2,3 3,7 7,6 19 10 26 14 W 0,1 0
09.11.2019 03:00:00 1,0 0,6 1,2 2,3 3,7 7,6 16 9 32 17 W 0,1 0
09.11.2019 02:00:00 1,0 0,5 1,2 2,4 3,7 7,6 21 11 28 15 W 0,1 0
09.11.2019 01:00:00 1,1 0,7 1,3 2,4 3,7 7,6 19 10 27 15 W 0,1 0
09.11.2019 00:00:00 1,2 0,7 1,3 2,4 3,8 7,6 19 10 28 15 W 0,1 0
08.11.2019 23:00:00 1,4 0,9 1,5 2,5 3,8 7,6 19 10 26 14 WSW 0,1 0
08.11.2019 22:00:00 1,5 1,1 1,6 2,5 3,8 7,6 14 8 21 12 SW 0,1 0
08.11.2019 21:00:00 1,5 1,0 1,6 2,5 3,8 7,6 14 8 23 13 S 0,1 0
08.11.2019 20:00:00 1,3 0,9 1,5 2,4 3,8 7,6 16 9 27 14 SE 0,1 0
08.11.2019 19:00:00 1,2 0,8 1,4 2,4 3,8 7,6 20 11 28 15 ESE 0,1 0
08.11.2019 18:00:00 1,1 0,7 1,3 2,5 3,8 7,6 21 11 31 17 ESE 0,1 0
08.11.2019 17:00:00 1,1 0,7 1,3 2,6 3,8 7,6 22 12 31 17 E 0,1 0
08.11.2019 16:00:00 1,3 0,9 1,5 2,6 3,8 7,6 18 10 31 17 E - 0
08.11.2019 15:00:00 1,3 1,0 1,6 2,7 3,7 7,6 21 11 44 24 E 0,1 0
08.11.2019 14:00:00 1,1 0,7 1,5 2,7 3,7 7,6 34 18 49 26 E 0,1 0
08.11.2019 13:00:00 1,6 1,2 1,9 2,8 3,7 7,6 31 17 46 25 ESE 0,1 0
08.11.2019 12:00:00 1,4 1,0 2,0 2,7 3,6 7,6 32 17 44 24 E 0,1 0
08.11.2019 11:00:00 1,0 0,6 1,6 2,5 3,6 7,7 35 19 44 24 ESE 0,1 0
08.11.2019 10:00:00 1,0 0,6 1,5 2,2 3,7 7,7 27 14 36 19 ESE 0,1 0
08.11.2019 09:00:00 0,6 0,2 1,0 1,9 3,7 7,7 26 14 33 18 ESE 0,1 0
08.11.2019 08:00:00 0,1 -0,4 0,4 1,6 3,7 7,7 23 13 35 19 ESE 0,1 0
08.11.2019 07:00:00 0,5 0,0 0,3 1,7 3,8 7,7 22 12 29 15 E 0,1 0
08.11.2019 06:00:00 0,6 0,1 0,4 1,8 3,8 7,7 18 10 23 12 ESE 0,1 0
08.11.2019 05:00:00 1,1 0,2 0,5 1,8 3,9 7,7 16 9 17 9 ESE 13 0
08.11.2019 04:00:00 1,4 -0,4 0,1 2,0 3,9 7,7 12 7 21 12 NE 75 0
08.11.2019 03:00:00 1,3 -0,1 0,8 2,1 4,0 7,7 20 11 23 12 SW 32 0
08.11.2019 02:00:00 1,5 0,4 1,0 2,1 4,0 7,7 16 9 19 11 SW 31 0
08.11.2019 01:00:00 1,3 0,8 1,2 2,1 4,1 7,7 12 7 36 19 SW 0,1 0
08.11.2019 00:00:00 1,5 0,8 1,2 2,0 4,1 7,7 32 17 39 21 SW 5 0
07.11.2019 23:00:00 1,4 0,9 0,9 2,0 4,2 7,7 32 17 42 23 SW 4,3 0
07.11.2019 22:00:00 1,3 0,7 0,9 2,2 4,3 7,7 36 19 44 24 WSW 3,7 0
07.11.2019 21:00:00 1,4 0,3 1,1 2,4 4,3 7,7 31 17 51 28 SW 21 0
07.11.2019 20:00:00 1,6 0,9 1,1 2,7 4,4 7,7 41 22 53 29 SSW 11 0
07.11.2019 19:00:00 1,9 1,3 1,6 2,9 4,4 7,8 40 22 51 28 SSW 4,3 0
07.11.2019 18:00:00 2,0 1,5 1,7 3,2 4,4 7,8 36 19 48 26 S 4,9 0
07.11.2019 17:00:00 1,7 1,3 1,7 3,3 4,4 7,8 31 17 41 22 S 0,3 0
07.11.2019 16:00:00 1,2 0,6 1,1 3,7 4,3 7,8 34 18 44 24 S 6 13
07.11.2019 15:00:00 1,1 0,4 1,4 4,3 4,2 7,8 31 17 44 24 SSW 12 4
07.11.2019 14:00:00 1,4 0,9 2,5 4,6 4,1 7,8 31 17 40 22 S 0,4 4
07.11.2019 13:00:00 1,8 1,3 2,9 4,7 4,0 7,8 32 17 45 24 S 1,3 6
07.11.2019 12:00:00 1,8 1,4 3,6 4,1 3,9 7,8 24 13 40 22 SSW 0,8 13
07.11.2019 11:00:00 1,7 1,2 3,2 3,4 3,9 7,8 34 18 49 27 SW 0,5 50
07.11.2019 10:00:00 1,1 0,7 2,0 2,7 3,8 7,8 35 19 51 27 SSW 0,1 5
07.11.2019 09:00:00 0,8 0,5 1,3 2,3 3,9 7,8 36 19 47 26 SW 0,1 0
07.11.2019 08:00:00 1,0 0,6 1,3 2,1 3,9 7,8 37 20 46 25 SSW 0,1 0
07.11.2019 07:00:00 0,8 0,4 0,8 2,0 3,9 7,8 39 21 51 27 SW 0,2 0
07.11.2019 06:00:00 0,9 0,5 1,0 2,0 4,0 7,8 35 19 46 25 SW 0,1 0
07.11.2019 05:00:00 0,7 0,3 0,8 2,0 4,0 7,8 36 20 50 27 SW 0,2 0
07.11.2019 04:00:00 1,0 0,6 0,9 2,3 4,0 7,8 40 21 47 25 WSW 0,2 0
07.11.2019 03:00:00 1,1 0,7 1,2 2,4 4,1 7,8 36 19 45 24 WSW 0,1 0
07.11.2019 02:00:00 1,1 0,7 1,3 2,4 4,1 7,8 32 17 40 22 WSW 0,1 0
07.11.2019 01:00:00 1,1 0,7 1,2 2,4 4,1 7,9 28 15 38 21 WSW 0,1 0
07.11.2019 00:00:00 1,0 0,6 1,2 2,4 4,1 7,9 29 15 39 21 W 0,1 0
06.11.2019 23:00:00 0,9 0,4 1,1 2,4 4,2 7,9 30 16 42 23 W 0,1 0
06.11.2019 22:00:00 0,8 0,3 1,0 2,4 4,2 7,9 27 15 36 19 WSW 0,1 0
06.11.2019 21:00:00 0,7 0,2 0,9 2,4 4,2 7,9 30 16 44 24 W 0,1 0
06.11.2019 20:00:00 0,6 0,1 0,8 2,5 4,3 7,9 34 18 50 27 W 0,2 0
06.11.2019 19:00:00 0,8 0,3 0,9 2,6 4,3 7,9 36 20 48 26 W 0,1 0
06.11.2019 18:00:00 0,8 0,3 1,0 2,8 4,3 7,9 40 22 54 29 W 0,1 0
06.11.2019 17:00:00 0,8 0,3 0,8 3,0 4,3 7,9 35 19 50 27 W 1,0 0
06.11.2019 16:00:00 1,1 0,6 1,4 3,3 4,3 7,9 32 17 46 25 W 0,1 0
06.11.2019 15:00:00 1,5 1,1 2,3 3,5 4,2 7,9 35 19 50 27 W 0,2 0
06.11.2019 14:00:00 1,5 1,1 2,2 3,5 4,1 7,9 35 19 49 26 WSW 0,2 0
06.11.2019 13:00:00 1,5 1,0 2,0 3,7 4,0 7,9 34 18 49 27 W 0,2 0
06.11.2019 12:00:00 1,7 1,2 2,3 3,7 4,0 7,9 36 20 50 27 W 0,2 3
06.11.2019 11:00:00 1,9 1,5 2,8 3,2 3,9 7,9 34 19 48 26 W 0,1 0
06.11.2019 10:00:00 1,9 1,5 2,7 2,6 3,9 7,9 31 17 44 24 W 0,1 0
06.11.2019 09:00:00 1,5 1,1 2,0 1,9 4,0 7,9 36 19 50 27 W 0,1 0
06.11.2019 08:00:00 1,3 0,9 1,2 1,5 4,1 7,9 39 21 54 29 W 0,1 0
06.11.2019 07:00:00 0,9 0,4 0,5 1,4 4,1 7,9 44 24 55 30 W 1,4 0
06.11.2019 06:00:00 0,5 0,0 -0,1 1,5 4,2 7,9 40 21 51 28 W 45 0
06.11.2019 05:00:00 1,1 0,7 1,0 1,7 4,3 7,9 39 21 52 28 W 0,3 0

tt = Température de l'air
td = dewpoint
tt 5cm = Température de l'air 5cm
tt -5cm = Température de l'air -5cm
tt -20cm = Température de l'air -20cm
tt -100cm = Température de l'air -100cm
ff = Vitesse du vent
fx = gusts
dd = Direction du vent
vv = visibility
sd = Ensoleillement

stations d'obs. à proximité